createdAt,value
2024-05-09T00:00:57.661Z,97057.06
2024-05-09T00:03:27.922Z,97051.28
2024-05-09T00:05:58.179Z,97050.75
2024-05-09T00:08:28.499Z,97043.44
2024-05-09T00:11:01.430Z,97045.94
2024-05-09T00:13:31.588Z,97039.44
2024-05-09T00:16:02.866Z,97036.78
2024-05-09T00:18:33.427Z,97043.44
2024-05-09T00:21:03.770Z,97032.63
2024-05-09T00:23:34.104Z,97031.16
2024-05-09T00:26:07.307Z,97029.31
2024-05-09T00:28:37.397Z,97035.16
2024-05-09T00:31:07.854Z,97018.53
2024-05-09T00:33:38.132Z,97021.03
2024-05-09T00:36:10.027Z,97021.88
2024-05-09T00:38:40.163Z,97021.03
2024-05-09T00:41:14.145Z,97014.56
2024-05-09T00:43:45.406Z,97010.75
2024-05-09T00:46:15.704Z,97012.56
2024-05-09T00:48:45.872Z,97012.75
2024-05-09T00:51:16.233Z,97017.88
2024-05-09T00:53:46.550Z,97020.72
2024-05-09T00:56:20.331Z,97014.91
2024-05-09T00:58:51.902Z,97021.22
2024-05-09T01:01:24.717Z,97009.91
2024-05-09T01:03:55.733Z,97017.88
2024-05-09T01:06:25.990Z,97016.91
2024-05-09T01:08:56.614Z,97010.59
2024-05-09T01:11:36.712Z,97009.25
2024-05-09T01:14:06.916Z,97009.75
2024-05-09T01:16:37.339Z,97009.06
2024-05-09T01:19:07.915Z,97011.22
2024-05-09T01:21:38.154Z,97008.38
2024-05-09T01:24:11.142Z,97009.25
2024-05-09T01:26:41.301Z,97005.44
2024-05-09T01:29:11.492Z,97007.44
2024-05-09T01:31:41.704Z,97005.75
2024-05-09T01:34:11.990Z,97009.25
2024-05-09T01:36:42.203Z,97007.91
2024-05-09T01:39:14.924Z,97003.06
2024-05-09T01:41:45.009Z,96998.59
2024-05-09T01:44:15.081Z,97005.41
2024-05-09T01:46:45.255Z,97008.06
2024-05-09T01:49:15.537Z,97012.19
2024-05-09T01:51:45.795Z,97006.88
2024-05-09T01:54:18.472Z,97004.22
2024-05-09T01:56:48.662Z,97009.38
2024-05-09T01:59:18.839Z,97004.91
2024-05-09T02:01:56.670Z,97002.09
2024-05-09T02:04:28.099Z,97001.56
2024-05-09T02:06:58.333Z,97003.75
2024-05-09T02:09:31.362Z,97001.09
2024-05-09T02:12:01.587Z,97013.38
2024-05-09T02:14:31.783Z,97010.06
2024-05-09T02:17:01.914Z,97011.91
2024-05-09T02:19:32.146Z,97010.38
2024-05-09T02:22:02.316Z,97012.38
2024-05-09T02:24:34.996Z,97009.91
2024-05-09T02:27:05.179Z,97010.25
2024-05-09T02:29:35.495Z,97006.94
2024-05-09T02:32:05.966Z,97008.75
2024-05-09T02:34:36.106Z,97004.09
2024-05-09T02:37:03.638Z,97004.28
2024-05-09T02:39:36.994Z,96999.63
2024-05-09T02:42:04.741Z,96998.97
2024-05-09T02:44:34.854Z,97000.78
2024-05-09T02:47:02.525Z,97000.97
2024-05-09T02:49:32.702Z,97001.63
2024-05-09T02:52:00.186Z,97004.59
2024-05-09T02:54:30.798Z,96999.13
2024-05-09T02:57:00.899Z,96997.97
2024-05-09T02:59:31.042Z,97000.28
2024-05-09T03:01:58.602Z,97001.28
2024-05-09T03:04:28.762Z,96998.97
2024-05-09T03:06:56.553Z,96996.81
2024-05-09T03:09:27.320Z,96995.47
2024-05-09T03:11:55.213Z,97007.59
2024-05-09T03:14:28.077Z,97002.13
2024-05-09T03:16:55.876Z,97002.97
2024-05-09T03:19:26.078Z,97009.94
2024-05-09T03:21:53.697Z,97004.63
2024-05-09T03:24:23.766Z,97005.13
2024-05-09T03:26:51.283Z,97001.28
2024-05-09T03:29:21.630Z,97005.28
2024-05-09T03:31:51.800Z,97001.97
2024-05-09T03:34:21.975Z,97003.13
2024-05-09T03:36:52.070Z,96998.47
2024-05-09T03:39:19.517Z,97005.28
2024-05-09T03:41:49.666Z,97002.47
2024-05-09T03:44:19.785Z,97005.28
2024-05-09T03:46:47.354Z,97001.63
2024-05-09T03:49:20.740Z,96991.34
2024-05-09T03:51:48.347Z,97000.81
2024-05-09T03:54:18.434Z,97000.13
2024-05-09T03:56:46.092Z,96993.66
2024-05-09T03:59:16.237Z,96998.97
2024-05-09T04:01:43.787Z,97003.94
2024-05-09T04:04:14.099Z,97004.59
2024-05-09T04:06:44.191Z,97002.97
2024-05-09T04:09:14.325Z,97007.44
2024-05-09T04:11:41.885Z,97009.09
2024-05-09T04:14:12.373Z,97014.56
2024-05-09T04:16:39.990Z,97019.06
2024-05-09T04:19:10.137Z,97022.56
2024-05-09T04:21:40.233Z,97019.25
2024-05-09T04:24:10.753Z,97023.19
2024-05-09T04:26:40.914Z,97022.88
2024-05-09T04:29:08.890Z,97021.56
2024-05-09T04:31:39.609Z,97025.69
2024-05-09T04:34:07.346Z,97024.88
2024-05-09T04:36:39.005Z,97027.88
2024-05-09T04:39:10.330Z,97018.91
2024-05-09T04:41:40.493Z,97029.84
2024-05-09T04:44:08.012Z,97029.19
2024-05-09T04:46:39.735Z,97038.13
2024-05-09T04:49:07.280Z,97038.81
2024-05-09T04:51:38.032Z,97033.00
2024-05-09T04:54:08.313Z,97031.16
2024-05-09T04:56:41.189Z,97036.50
2024-05-09T04:59:08.862Z,97029.03
2024-05-09T05:01:38.955Z,97035.19
2024-05-09T05:04:06.472Z,97033.16
2024-05-09T05:06:36.670Z,97037.63
2024-05-09T05:09:04.211Z,97041.00
2024-05-09T05:11:34.394Z,97032.50
2024-05-09T05:14:04.790Z,97031.84
2024-05-09T05:16:35.360Z,97034.34
2024-05-09T05:19:02.902Z,97040.81
2024-05-09T05:21:33.152Z,97038.81
2024-05-09T05:24:00.648Z,97038.47
2024-05-09T05:26:30.809Z,97036.97
2024-05-09T05:28:58.361Z,97042.78
2024-05-09T05:31:31.107Z,97033.63
2024-05-09T05:33:58.663Z,97050.91
2024-05-09T05:36:28.737Z,97043.78
2024-05-09T05:38:56.202Z,97043.63
2024-05-09T05:41:26.452Z,97048.59
2024-05-09T05:43:53.941Z,97041.31
2024-05-09T05:46:24.067Z,97046.94
2024-05-09T05:48:54.429Z,97046.59
2024-05-09T05:51:25.202Z,97048.75
2024-05-09T05:53:52.669Z,97048.13
2024-05-09T05:56:22.921Z,97051.75
2024-05-09T05:58:50.500Z,97053.59
2024-05-09T06:01:20.626Z,97052.44
2024-05-09T06:03:48.334Z,97055.06
2024-05-09T06:06:21.170Z,97059.75
2024-05-09T06:08:48.874Z,97059.25
2024-05-09T06:11:19.207Z,97054.91
2024-05-09T06:13:46.853Z,97061.88
2024-05-09T06:16:17.083Z,97067.88
2024-05-09T06:18:46.865Z,97064.69
2024-05-09T06:21:22.593Z,97064.38
2024-05-09T06:23:50.503Z,97063.72
2024-05-09T06:26:20.656Z,97069.88
2024-05-09T06:28:48.397Z,97066.69
2024-05-09T06:31:18.558Z,97065.06
2024-05-09T06:33:46.155Z,97064.72
2024-05-09T06:36:16.630Z,97069.19
2024-05-09T06:38:46.761Z,97066.03
2024-05-09T06:41:16.924Z,97070.84
2024-05-09T06:43:44.576Z,97066.69
2024-05-09T06:46:14.726Z,97071.84
2024-05-09T06:48:43.065Z,97067.72
2024-05-09T06:51:13.437Z,97066.03
2024-05-09T06:53:41.306Z,97074.66
2024-05-09T06:56:14.258Z,97074.66
2024-05-09T06:58:41.755Z,97079.16
2024-05-09T07:01:11.918Z,97082.00
2024-05-09T07:03:42.255Z,97084.97
2024-05-09T07:06:12.509Z,97074.84
2024-05-09T07:08:41.391Z,97080.66
2024-05-09T07:11:14.545Z,97074.66
2024-05-09T07:13:42.182Z,97081.94
2024-05-09T07:16:12.402Z,97078.47
2024-05-09T07:18:40.053Z,97080.28
2024-05-09T07:21:10.479Z,97080.94
2024-05-09T07:23:38.805Z,97083.28
2024-05-09T07:26:08.981Z,97080.94
2024-05-09T07:28:39.182Z,97074.13
2024-05-09T07:31:09.705Z,97074.13
2024-05-09T07:33:37.286Z,97076.09
2024-05-09T07:36:07.536Z,97073.44
2024-05-09T07:38:37.780Z,97073.13
2024-05-09T07:41:06.569Z,97073.75
2024-05-09T07:43:36.782Z,97072.03
2024-05-09T07:47:10.068Z,97065.84
2024-05-09T07:50:35.241Z,97072.59
2024-05-09T07:54:18.050Z,97068.34
2024-05-09T07:56:46.138Z,97070.63
2024-05-09T07:59:16.415Z,97068.09
2024-05-09T08:01:46.608Z,97065.28
2024-05-09T08:04:16.830Z,97065.50
2024-05-09T08:06:44.443Z,97075.66
2024-05-09T08:09:19.618Z,97071.09
2024-05-09T08:11:48.831Z,97070.75
2024-05-09T08:14:19.070Z,97063.06
2024-05-09T08:16:49.227Z,97068.50
2024-05-09T08:19:19.540Z,97072.78
2024-05-09T08:21:47.248Z,97069.38
2024-05-09T08:24:17.401Z,97070.34
2024-05-09T08:26:44.903Z,97068.59
2024-05-09T08:29:15.723Z,97069.06
2024-05-09T08:31:43.215Z,97070.75
2024-05-09T08:34:17.138Z,97066.25
2024-05-09T08:36:44.702Z,97070.84
2024-05-09T08:39:14.796Z,97064.78
2024-05-09T08:41:43.303Z,97067.03
2024-05-09T08:44:13.465Z,97061.72
2024-05-09T08:46:42.918Z,97063.47
2024-05-09T08:49:17.004Z,97056.03
2024-05-09T08:51:46.711Z,97052.59
2024-05-09T08:54:18.008Z,97051.75
2024-05-09T08:56:48.436Z,97042.75
2024-05-09T08:59:24.221Z,97043.09
2024-05-09T09:01:52.570Z,97044.28
2024-05-09T09:04:26.890Z,97044.25
2024-05-09T09:06:58.306Z,97043.78
2024-05-09T09:09:30.677Z,97044.13
2024-05-09T09:11:58.306Z,97054.31
2024-05-09T09:14:28.564Z,97042.88
2024-05-09T09:16:56.554Z,97054.00
2024-05-09T09:19:29.422Z,97046.63
2024-05-09T09:21:57.240Z,97052.88
2024-05-09T09:24:27.438Z,97040.22
2024-05-09T09:26:58.636Z,97046.84
2024-05-09T09:29:29.160Z,97052.47
2024-05-09T09:31:59.790Z,97049.66
2024-05-09T09:34:33.327Z,97039.66
2024-05-09T09:37:05.520Z,97046.69
2024-05-09T09:39:37.362Z,97040.38
2024-05-09T09:42:06.444Z,97042.72
2024-05-09T09:44:39.579Z,97042.19
2024-05-09T09:47:10.211Z,97037.13
2024-05-09T09:49:44.010Z,97032.00
2024-05-09T09:52:13.721Z,97024.22
2024-05-09T09:54:46.120Z,97028.78
2024-05-09T09:57:14.667Z,97036.03
2024-05-09T09:59:47.421Z,97026.41
2024-05-09T10:02:15.233Z,97033.91
2024-05-09T10:04:48.308Z,97024.69
2024-05-09T10:07:18.310Z,97022.81
2024-05-09T10:09:48.718Z,97022.25
2024-05-09T10:12:16.695Z,97024.16
2024-05-09T10:14:51.725Z,97017.19
2024-05-09T10:17:19.274Z,97025.22
2024-05-09T10:19:52.228Z,97023.19
2024-05-09T10:22:28.258Z,97019.91
2024-05-09T10:25:07.532Z,97011.25
2024-05-09T10:27:35.142Z,97011.50
2024-05-09T10:30:14.317Z,97010.69
2024-05-09T10:32:45.594Z,97002.44
2024-05-09T10:35:22.711Z,97003.69
2024-05-09T10:37:51.158Z,97016.28
2024-05-09T10:40:26.614Z,97015.03
2024-05-09T10:43:03.391Z,97010.09
2024-05-09T10:45:36.025Z,97010.28
2024-05-09T10:48:03.747Z,97010.69
2024-05-09T10:50:37.644Z,97004.69
2024-05-09T10:53:05.525Z,97007.78
2024-05-09T10:55:35.638Z,97005.72
2024-05-09T10:58:03.238Z,97003.88
2024-05-09T11:00:36.362Z,97000.56
2024-05-09T11:03:04.760Z,97010.91
2024-05-09T11:05:38.965Z,96997.06
2024-05-09T11:08:07.206Z,97001.81
2024-05-09T11:10:37.651Z,97013.78
2024-05-09T11:13:05.594Z,97005.75
2024-05-09T11:15:41.919Z,97003.28
2024-05-09T11:18:24.755Z,97004.91
2024-05-09T11:20:59.816Z,96998.88
2024-05-09T11:23:30.493Z,96995.78
2024-05-09T11:26:02.016Z,96998.88
2024-05-09T11:28:31.376Z,96999.09
2024-05-09T11:31:10.424Z,96991.41
2024-05-09T11:33:39.416Z,96992.88
2024-05-09T11:36:12.834Z,96996.22
2024-05-09T11:38:40.384Z,96999.88
2024-05-09T11:41:10.643Z,96996.81
2024-05-09T11:43:38.118Z,96998.03
2024-05-09T11:46:08.529Z,96996.78
2024-05-09T11:48:36.345Z,96982.34
2024-05-09T11:51:08.262Z,96983.97
2024-05-09T11:53:38.358Z,96976.06
2024-05-09T11:56:10.122Z,96981.19
2024-05-09T11:58:39.432Z,96981.38
2024-05-09T12:01:09.595Z,96975.56
2024-05-09T12:03:38.079Z,96971.03
2024-05-09T12:06:08.725Z,96973.72
2024-05-09T12:08:39.331Z,96964.00
2024-05-09T12:11:09.644Z,96966.47
2024-05-09T12:13:37.137Z,96959.63
2024-05-09T12:16:07.718Z,96954.06
2024-05-09T12:18:35.391Z,96951.91
2024-05-09T12:21:05.574Z,96953.53
2024-05-09T12:23:33.250Z,96952.25
2024-05-09T12:26:05.953Z,96950.97
2024-05-09T12:28:33.590Z,96950.88
2024-05-09T12:31:03.782Z,96951.81
2024-05-09T12:33:31.449Z,96944.25
2024-05-09T12:36:01.783Z,96943.56
2024-05-09T12:38:29.266Z,96936.56
2024-05-09T12:40:59.424Z,96945.22
2024-05-09T12:43:29.700Z,96943.06
2024-05-09T12:46:00.094Z,96936.31
2024-05-09T12:48:27.926Z,96931.19
2024-05-09T12:50:58.610Z,96934.34
2024-05-09T12:53:26.160Z,96933.03
2024-05-09T12:56:00.190Z,96927.16
2024-05-09T12:58:32.548Z,96921.50
2024-05-09T13:01:02.806Z,96925.63
2024-05-09T13:03:30.475Z,96929.81
2024-05-09T13:06:00.949Z,96923.19
2024-05-09T13:08:31.250Z,96925.84
2024-05-09T13:11:02.054Z,96919.34
2024-05-09T13:13:32.232Z,96916.91
2024-05-09T13:16:02.523Z,96909.22
2024-05-09T13:18:30.213Z,96912.13
2024-05-09T13:21:00.439Z,96915.88
2024-05-09T13:23:27.989Z,96911.31
2024-05-09T13:25:58.481Z,96902.78
2024-05-09T13:28:26.125Z,96901.06
2024-05-09T13:30:59.096Z,96900.25
2024-05-09T13:33:26.864Z,96906.16
2024-05-09T13:35:57.106Z,96900.09
2024-05-09T13:38:24.677Z,96898.59
2024-05-09T13:40:54.819Z,96901.00
2024-05-09T13:43:23.386Z,96892.06
2024-05-09T13:45:55.240Z,96890.41
2024-05-09T13:48:25.642Z,96895.09
2024-05-09T13:50:55.964Z,96891.81
2024-05-09T13:53:25.217Z,96886.97
2024-05-09T13:55:55.395Z,96878.97
2024-05-09T13:58:23.629Z,96883.47
2024-05-09T14:00:54.058Z,96873.88
2024-05-09T14:03:21.972Z,96886.59
2024-05-09T14:05:55.067Z,96883.13
2024-05-09T14:08:23.100Z,96875.28
2024-05-09T14:10:53.768Z,96876.97
2024-05-09T14:13:21.510Z,96879.47
2024-05-09T14:15:52.049Z,96875.94
2024-05-09T14:18:20.021Z,96875.13
2024-05-09T14:20:50.151Z,96873.84
2024-05-09T14:23:20.898Z,96873.56
2024-05-09T14:25:53.051Z,96871.19
2024-05-09T14:28:21.251Z,96875.59
2024-05-09T14:30:51.687Z,96866.50
2024-05-09T14:33:25.544Z,96864.72
2024-05-09T14:35:56.053Z,96873.44
2024-05-09T14:38:27.859Z,96866.25
2024-05-09T14:40:58.163Z,96864.16
2024-05-09T14:43:25.799Z,96859.66
2024-05-09T14:45:56.394Z,96872.16
2024-05-09T14:48:24.073Z,96861.91
2024-05-09T14:50:54.554Z,96862.63
2024-05-09T14:53:23.685Z,96866.66
2024-05-09T14:55:57.507Z,96857.38
2024-05-09T14:58:25.543Z,96859.84
2024-05-09T15:00:56.049Z,96856.50
2024-05-09T15:03:23.667Z,96852.16
2024-05-09T15:05:54.075Z,96845.97
2024-05-09T15:08:21.735Z,96853.66
2024-05-09T15:10:52.284Z,96846.41
2024-05-09T15:13:22.802Z,96850.75
2024-05-09T15:15:53.434Z,96843.03
2024-05-09T15:18:21.331Z,96840.59
2024-05-09T15:20:51.800Z,96840.59
2024-05-09T15:23:19.316Z,96845.28
2024-05-09T15:25:49.558Z,96835.28
2024-05-09T15:28:17.207Z,96834.56
2024-05-09T15:30:50.351Z,96830.81
2024-05-09T15:33:18.266Z,96828.72
2024-05-09T15:35:49.419Z,96831.78
2024-05-09T15:38:18.383Z,96827.28
2024-05-09T15:40:48.951Z,96829.72
2024-05-09T15:43:16.737Z,96821.16
2024-05-09T15:45:49.826Z,96821.97
2024-05-09T15:48:17.929Z,96812.88
2024-05-09T15:50:48.227Z,96822.06
2024-05-09T15:53:15.864Z,96815.03
2024-05-09T15:55:46.162Z,96821.38
2024-05-09T15:58:14.726Z,96816.13
2024-05-09T16:00:47.019Z,96816.66
2024-05-09T16:03:21.183Z,96824.81
2024-05-09T16:05:51.967Z,96818.03
2024-05-09T16:08:19.761Z,96823.53
2024-05-09T16:10:50.320Z,96820.25
2024-05-09T16:13:19.809Z,96816.16
2024-05-09T16:15:50.459Z,96811.78
2024-05-09T16:18:21.520Z,96817.13
2024-05-09T16:20:59.404Z,96810.34
2024-05-09T16:23:26.987Z,96816.69
2024-05-09T16:25:57.313Z,96816.34
2024-05-09T16:28:26.951Z,96811.22
2024-05-09T16:30:58.217Z,96813.91
2024-05-09T16:33:28.687Z,96808.59
2024-05-09T16:35:59.059Z,96807.63
2024-05-09T16:38:26.589Z,96806.38
2024-05-09T16:40:56.752Z,96814.19
2024-05-09T16:43:24.508Z,96815.94
2024-05-09T16:45:54.676Z,96809.72
2024-05-09T16:48:22.414Z,96818.69
2024-05-09T16:50:55.204Z,96806.66
2024-05-09T16:53:23.265Z,96807.88
2024-05-09T16:55:53.360Z,96804.25
2024-05-09T16:58:21.035Z,96805.47
2024-05-09T17:00:51.291Z,96810.25
2024-05-09T17:03:20.198Z,96812.13
2024-05-09T17:05:50.765Z,96805.53
2024-05-09T17:08:21.119Z,96798.59
2024-05-09T17:10:51.572Z,96805.72
2024-05-09T17:13:22.698Z,96808.06
2024-05-09T17:15:50.659Z,96801.53
2024-05-09T17:18:21.495Z,96796.81
2024-05-09T17:20:50.312Z,96799.13
2024-05-09T17:23:20.560Z,96804.78
2024-05-09T17:25:50.654Z,96801.19
2024-05-09T17:28:21.231Z,96797.91
2024-05-09T17:30:49.131Z,96804.56
2024-05-09T17:33:19.770Z,96801.47
2024-05-09T17:35:50.774Z,96802.94
2024-05-09T17:38:22.927Z,96793.88
2024-05-09T17:40:53.621Z,96798.47
2024-05-09T17:43:23.935Z,96801.41
2024-05-09T17:45:51.590Z,96807.44
2024-05-09T17:48:22.079Z,96808.03
2024-05-09T17:50:51.503Z,96812.41
2024-05-09T17:53:21.637Z,96814.94
2024-05-09T17:55:49.178Z,96809.38
2024-05-09T17:58:22.199Z,96812.09
2024-05-09T18:00:49.921Z,96805.47
2024-05-09T18:03:20.145Z,96810.25
2024-05-09T18:05:47.794Z,96820.56
2024-05-09T18:08:18.078Z,96820.41
2024-05-09T18:10:45.602Z,96820.63
2024-05-09T18:13:16.212Z,96814.84
2024-05-09T18:15:46.475Z,96811.75
2024-05-09T18:18:17.316Z,96813.00
2024-05-09T18:20:46.184Z,96816.94
2024-05-09T18:23:18.865Z,96815.13
2024-05-09T18:25:47.768Z,96814.50
2024-05-09T18:28:18.362Z,96814.91
2024-05-09T18:30:48.582Z,96812.91
2024-05-09T18:33:19.212Z,96824.03
2024-05-09T18:35:46.916Z,96821.16
2024-05-09T18:38:17.672Z,96827.34
2024-05-09T18:40:48.340Z,96826.72
2024-05-09T18:43:26.206Z,96832.06
2024-05-09T18:46:04.286Z,96830.22
2024-05-09T18:48:32.010Z,96829.81
2024-05-09T18:51:02.405Z,96828.19
2024-05-09T18:53:30.077Z,96829.41
2024-05-09T18:56:00.289Z,96836.00
2024-05-09T18:58:27.800Z,96824.03
2024-05-09T19:01:00.800Z,96836.44
2024-05-09T19:03:32.076Z,96837.66
2024-05-09T19:06:02.623Z,96838.44
2024-05-09T19:08:30.212Z,96844.34
2024-05-09T19:11:02.046Z,96843.88
2024-05-09T19:13:30.023Z,96846.56
2024-05-09T19:16:00.434Z,96842.88
2024-05-09T19:18:28.243Z,96854.44
2024-05-09T19:21:01.004Z,96859.78
2024-05-09T19:23:29.009Z,96857.31
2024-05-09T19:25:59.394Z,96862.84
2024-05-09T19:28:26.919Z,96868.59
2024-05-09T19:30:57.357Z,96865.09
2024-05-09T19:33:24.917Z,96867.97
2024-05-09T19:35:55.547Z,96867.16
2024-05-09T19:38:25.752Z,96864.22
2024-05-09T19:40:55.952Z,96865.63
2024-05-09T19:43:23.543Z,96860.88
2024-05-09T19:45:53.848Z,96869.91
2024-05-09T19:48:22.277Z,96858.25
2024-05-09T19:50:53.257Z,96863.31
2024-05-09T19:53:21.202Z,96864.81
2024-05-09T19:55:53.937Z,96863.97
2024-05-09T19:58:21.794Z,96870.09
2024-05-09T20:00:52.176Z,96872.88
2024-05-09T20:03:19.859Z,96871.00
2024-05-09T20:05:50.193Z,96870.09
2024-05-09T20:08:17.844Z,96873.56
2024-05-09T20:10:48.070Z,96879.47
2024-05-09T20:13:18.409Z,96870.25
2024-05-09T20:15:48.650Z,96869.88
2024-05-09T20:18:18.164Z,96869.69
2024-05-09T20:20:51.648Z,96866.44
2024-05-09T20:23:21.310Z,96863.13
2024-05-09T20:25:51.462Z,96864.34
2024-05-09T20:28:21.744Z,96861.38
2024-05-09T20:30:52.010Z,96870.97
2024-05-09T20:33:19.517Z,96871.59
2024-05-09T20:35:49.834Z,96867.53
2024-05-09T20:38:17.605Z,96870.84
2024-05-09T20:40:47.889Z,96871.78
2024-05-09T20:43:15.565Z,96867.22
2024-05-09T20:45:48.390Z,96868.38
2024-05-09T20:48:15.978Z,96874.19
2024-05-09T20:50:46.317Z,96876.81
2024-05-09T20:53:15.127Z,96873.88
2024-05-09T20:55:46.477Z,96883.50
2024-05-09T20:58:14.217Z,96887.47
2024-05-09T21:00:45.929Z,96883.44
2024-05-09T21:03:17.657Z,96874.63
2024-05-09T21:05:48.904Z,96872.59
2024-05-09T21:08:16.658Z,96878.00
2024-05-09T21:10:46.891Z,96879.41
2024-05-09T21:13:14.832Z,96875.06
2024-05-09T21:15:45.173Z,96873.97
2024-05-09T21:18:12.925Z,96872.88
2024-05-09T21:20:45.826Z,96865.41
2024-05-09T21:23:13.314Z,96874.72
2024-05-09T21:25:43.574Z,96867.16
2024-05-09T21:28:11.102Z,96869.28
2024-05-09T21:30:42.977Z,96870.81
2024-05-09T21:33:12.974Z,96870.91
2024-05-09T21:35:47.128Z,96860.84
2024-05-09T21:38:15.767Z,96871.41
2024-05-09T21:40:46.290Z,96868.75
2024-05-09T21:43:14.497Z,96877.19
2024-05-09T21:45:45.119Z,96880.28
2024-05-09T21:48:13.465Z,96879.88
2024-05-09T21:50:46.421Z,96876.56
2024-05-09T21:53:14.451Z,96880.56
2024-05-09T21:55:45.043Z,96865.31
2024-05-09T21:58:12.928Z,96882.22
2024-05-09T22:00:45.589Z,96879.00
2024-05-09T22:03:13.509Z,96878.69
2024-05-09T22:05:45.091Z,96884.19
2024-05-09T22:08:15.733Z,96877.75
2024-05-09T22:10:46.019Z,96881.47
2024-05-09T22:13:13.906Z,96881.50
2024-05-09T22:15:44.179Z,96878.53
2024-05-09T22:18:12.193Z,96879.56
2024-05-09T22:20:45.776Z,96877.31
2024-05-09T22:23:16.709Z,96871.56
2024-05-09T22:25:46.941Z,96876.09
2024-05-09T22:28:15.823Z,96874.56
2024-05-09T22:30:47.327Z,96877.84
2024-05-09T22:33:15.600Z,96881.63
2024-05-09T22:35:45.896Z,96877.63
2024-05-09T22:38:16.010Z,96876.81
2024-05-09T22:40:49.187Z,96873.63
2024-05-09T22:43:20.697Z,96874.97
2024-05-09T22:45:52.385Z,96873.63
2024-05-09T22:48:20.687Z,96871.31
2024-05-09T22:50:50.885Z,96872.50
2024-05-09T22:53:22.179Z,96874.25
2024-05-09T22:55:52.222Z,96874.72
2024-05-09T22:58:20.792Z,96873.22
2024-05-09T23:00:51.284Z,96868.13
2024-05-09T23:03:21.530Z,96869.69
2024-05-09T23:05:51.996Z,96867.22
2024-05-09T23:08:22.066Z,96864.06
2024-05-09T23:10:52.295Z,96857.44
2024-05-09T23:13:20.166Z,96861.56
2024-05-09T23:15:50.526Z,96856.34
2024-05-09T23:18:18.187Z,96867.25
2024-05-09T23:20:48.382Z,96857.59
2024-05-09T23:23:16.040Z,96857.75
2024-05-09T23:25:48.830Z,96855.47
2024-05-09T23:28:16.374Z,96861.28
2024-05-09T23:30:46.533Z,96855.53
2024-05-09T23:33:14.607Z,96853.84
2024-05-09T23:35:46.009Z,96857.44
2024-05-09T23:38:16.465Z,96851.78
2024-05-09T23:40:46.599Z,96849.78
2024-05-09T23:43:17.044Z,96848.59
2024-05-09T23:45:44.580Z,96844.13
2024-05-09T23:48:14.937Z,96845.00
2024-05-09T23:50:43.383Z,96840.47
2024-05-09T23:53:14.328Z,96836.44
2024-05-09T23:55:42.018Z,96836.63
2024-05-09T23:58:14.817Z,96832.81
